sensor_id;sensor_type;location;lat;lon;timestamp;temperature;humidity
39695;DHT22;25367;-35.352;149.036;2023-04-01T00:00:33;21.10;54.60
39695;DHT22;25367;-35.352;149.036;2023-04-01T00:03:03;21.20;54.60
39695;DHT22;25367;-35.352;149.036;2023-04-01T00:05:33;21.20;54.60
39695;DHT22;25367;-35.352;149.036;2023-04-01T00:08:02;21.20;54.70
39695;DHT22;25367;-35.352;149.036;2023-04-01T00:10:31;21.20;54.70
39695;DHT22;25367;-35.352;149.036;2023-04-01T00:13:01;21.20;54.70
39695;DHT22;25367;-35.352;149.036;2023-04-01T00:15:33;21.20;54.70
39695;DHT22;25367;-35.352;149.036;2023-04-01T00:18:03;21.20;54.60
39695;DHT22;25367;-35.352;149.036;2023-04-01T00:20:33;21.30;54.70
39695;DHT22;25367;-35.352;149.036;2023-04-01T00:23:03;21.30;54.70
39695;DHT22;25367;-35.352;149.036;2023-04-01T00:25:32;21.30;54.70
39695;DHT22;25367;-35.352;149.036;2023-04-01T00:28:02;21.40;54.80
39695;DHT22;25367;-35.352;149.036;2023-04-01T00:30:35;21.40;54.80
39695;DHT22;25367;-35.352;149.036;2023-04-01T00:33:05;21.40;54.70
39695;DHT22;25367;-35.352;149.036;2023-04-01T00:35:34;21.40;54.80
39695;DHT22;25367;-35.352;149.036;2023-04-01T00:38:04;21.40;54.70
39695;DHT22;25367;-35.352;149.036;2023-04-01T00:40:36;21.50;54.80
39695;DHT22;25367;-35.352;149.036;2023-04-01T00:43:11;21.50;54.80
39695;DHT22;25367;-35.352;149.036;2023-04-01T00:45:45;21.50;54.70
39695;DHT22;25367;-35.352;149.036;2023-04-01T00:48:17;21.50;54.80
39695;DHT22;25367;-35.352;149.036;2023-04-01T00:50:50;21.50;54.80
39695;DHT22;25367;-35.352;149.036;2023-04-01T00:53:21;21.50;54.80
39695;DHT22;25367;-35.352;149.036;2023-04-01T00:55:56;21.60;54.90
39695;DHT22;25367;-35.352;149.036;2023-04-01T00:58:29;21.60;54.80
39695;DHT22;25367;-35.352;149.036;2023-04-01T01:01:02;21.60;54.90
39695;DHT22;25367;-35.352;149.036;2023-04-01T01:03:31;21.70;54.90
39695;DHT22;25367;-35.352;149.036;2023-04-01T01:06:11;21.70;54.90
39695;DHT22;25367;-35.352;149.036;2023-04-01T01:09:06;21.80;54.80
39695;DHT22;25367;-35.352;149.036;2023-04-01T01:11:40;21.80;55.30
39695;DHT22;25367;-35.352;149.036;2023-04-01T01:14:11;21.80;55.00
39695;DHT22;25367;-35.352;149.036;2023-04-01T01:16:50;21.80;54.50
39695;DHT22;25367;-35.352;149.036;2023-04-01T01:19:39;21.80;55.10
39695;DHT22;25367;-35.352;149.036;2023-04-01T01:22:34;21.80;54.80
39695;DHT22;25367;-35.352;149.036;2023-04-01T01:25:26;21.80;54.80
39695;DHT22;25367;-35.352;149.036;2023-04-01T01:28:14;21.90;54.80
39695;DHT22;25367;-35.352;149.036;2023-04-01T01:30:51;21.90;54.80
39695;DHT22;25367;-35.352;149.036;2023-04-01T01:33:37;21.90;54.80
39695;DHT22;25367;-35.352;149.036;2023-04-01T01:36:12;21.90;54.70
39695;DHT22;25367;-35.352;149.036;2023-04-01T01:38:42;22.00;54.80
39695;DHT22;25367;-35.352;149.036;2023-04-01T01:41:13;21.90;54.70
39695;DHT22;25367;-35.352;149.036;2023-04-01T01:43:44;22.00;54.80
39695;DHT22;25367;-35.352;149.036;2023-04-01T01:46:20;22.00;54.50
39695;DHT22;25367;-35.352;149.036;2023-04-01T01:48:52;21.90;55.10
39695;DHT22;25367;-35.352;149.036;2023-04-01T01:51:25;22.00;55.20
39695;DHT22;25367;-35.352;149.036;2023-04-01T01:53:56;22.00;55.10
39695;DHT22;25367;-35.352;149.036;2023-04-01T01:56:28;22.10;55.20
39695;DHT22;25367;-35.352;149.036;2023-04-01T01:59:02;22.10;55.10
39695;DHT22;25367;-35.352;149.036;2023-04-01T02:01:35;22.10;55.00
39695;DHT22;25367;-35.352;149.036;2023-04-01T02:04:15;22.10;55.00
39695;DHT22;25367;-35.352;149.036;2023-04-01T02:06:53;22.10;55.00
39695;DHT22;25367;-35.352;149.036;2023-04-01T02:09:25;22.10;54.90
39695;DHT22;25367;-35.352;149.036;2023-04-01T02:11:57;22.10;54.90
39695;DHT22;25367;-35.352;149.036;2023-04-01T02:14:29;22.20;55.00
39695;DHT22;25367;-35.352;149.036;2023-04-01T02:17:04;22.20;54.90
39695;DHT22;25367;-35.352;149.036;2023-04-01T02:19:38;22.20;54.90
39695;DHT22;25367;-35.352;149.036;2023-04-01T02:22:13;22.20;54.80
39695;DHT22;25367;-35.352;149.036;2023-04-01T02:24:43;22.20;54.70
39695;DHT22;25367;-35.352;149.036;2023-04-01T02:27:13;22.20;54.70
39695;DHT22;25367;-35.352;149.036;2023-04-01T02:29:43;22.30;54.70
39695;DHT22;25367;-35.352;149.036;2023-04-01T02:32:14;22.20;54.60
39695;DHT22;25367;-35.352;149.036;2023-04-01T02:34:44;22.30;54.60
39695;DHT22;25367;-35.352;149.036;2023-04-01T02:37:17;22.30;54.60
39695;DHT22;25367;-35.352;149.036;2023-04-01T02:39:47;22.30;54.50
39695;DHT22;25367;-35.352;149.036;2023-04-01T02:42:16;22.30;54.50
39695;DHT22;25367;-35.352;149.036;2023-04-01T02:44:46;22.30;54.50
39695;DHT22;25367;-35.352;149.036;2023-04-01T02:47:18;22.30;54.50
39695;DHT22;25367;-35.352;149.036;2023-04-01T02:49:51;22.30;54.60
39695;DHT22;25367;-35.352;149.036;2023-04-01T02:52:24;22.40;54.90
39695;DHT22;25367;-35.352;149.036;2023-04-01T02:54:54;22.40;55.00
39695;DHT22;25367;-35.352;149.036;2023-04-01T02:57:24;22.40;54.90
39695;DHT22;25367;-35.352;149.036;2023-04-01T02:59:53;22.50;54.80
39695;DHT22;25367;-35.352;149.036;2023-04-01T03:02:23;22.50;54.70
39695;DHT22;25367;-35.352;149.036;2023-04-01T03:04:52;22.50;54.70
39695;DHT22;25367;-35.352;149.036;2023-04-01T03:07:25;22.50;54.70
39695;DHT22;25367;-35.352;149.036;2023-04-01T03:09:54;22.50;55.30
39695;DHT22;25367;-35.352;149.036;2023-04-01T03:12:24;22.50;54.60
39695;DHT22;25367;-35.352;149.036;2023-04-01T03:14:54;22.50;54.40
39695;DHT22;25367;-35.352;149.036;2023-04-01T03:17:23;22.50;54.40
39695;DHT22;25367;-35.352;149.036;2023-04-01T03:19:53;22.60;54.50
39695;DHT22;25367;-35.352;149.036;2023-04-01T03:22:25;22.60;54.50
39695;DHT22;25367;-35.352;149.036;2023-04-01T03:24:54;22.60;54.50
39695;DHT22;25367;-35.352;149.036;2023-04-01T03:27:23;22.60;55.10
39695;DHT22;25367;-35.352;149.036;2023-04-01T03:29:53;22.60;54.50
39695;DHT22;25367;-35.352;149.036;2023-04-01T03:32:22;22.60;54.50
39695;DHT22;25367;-35.352;149.036;2023-04-01T03:34:52;22.70;54.50
39695;DHT22;25367;-35.352;149.036;2023-04-01T03:37:25;22.70;54.30
39695;DHT22;25367;-35.352;149.036;2023-04-01T03:39:54;22.70;54.30
39695;DHT22;25367;-35.352;149.036;2023-04-01T03:42:23;22.70;54.20
39695;DHT22;25367;-35.352;149.036;2023-04-01T03:44:53;22.70;54.20
39695;DHT22;25367;-35.352;149.036;2023-04-01T03:47:23;22.80;54.20
39695;DHT22;25367;-35.352;149.036;2023-04-01T03:49:52;22.80;54.10
39695;DHT22;25367;-35.352;149.036;2023-04-01T03:52:25;22.80;54.10
39695;DHT22;25367;-35.352;149.036;2023-04-01T03:54:55;22.80;54.00
39695;DHT22;25367;-35.352;149.036;2023-04-01T03:57:24;22.80;54.00
39695;DHT22;25367;-35.352;149.036;2023-04-01T03:59:54;22.90;54.00
39695;DHT22;25367;-35.352;149.036;2023-04-01T04:02:24;22.90;53.90
39695;DHT22;25367;-35.352;149.036;2023-04-01T04:04:53;22.90;53.80
39695;DHT22;25367;-35.352;149.036;2023-04-01T04:07:25;22.90;53.80
39695;DHT22;25367;-35.352;149.036;2023-04-01T04:10:08;22.90;53.80
39695;DHT22;25367;-35.352;149.036;2023-04-01T04:12:38;22.90;53.80
39695;DHT22;25367;-35.352;149.036;2023-04-01T04:15:08;22.90;53.80
39695;DHT22;25367;-35.352;149.036;2023-04-01T04:17:37;23.00;53.70
39695;DHT22;25367;-35.352;149.036;2023-04-01T04:20:07;23.00;53.70
39695;DHT22;25367;-35.352;149.036;2023-04-01T04:22:39;23.00;53.70
39695;DHT22;25367;-35.352;149.036;2023-04-01T04:25:09;23.00;53.70
39695;DHT22;25367;-35.352;149.036;2023-04-01T04:27:39;23.00;53.80
39695;DHT22;25367;-35.352;149.036;2023-04-01T04:30:11;23.00;53.90
39695;DHT22;25367;-35.352;149.036;2023-04-01T04:32:40;23.00;53.80
39695;DHT22;25367;-35.352;149.036;2023-04-01T04:35:10;23.10;53.70
39695;DHT22;25367;-35.352;149.036;2023-04-01T04:37:42;23.10;53.70
39695;DHT22;25367;-35.352;149.036;2023-04-01T04:40:12;23.10;53.60
39695;DHT22;25367;-35.352;149.036;2023-04-01T04:42:42;23.10;53.60
39695;DHT22;25367;-35.352;149.036;2023-04-01T04:45:14;23.10;53.50
39695;DHT22;25367;-35.352;149.036;2023-04-01T04:47:53;23.20;53.60
39695;DHT22;25367;-35.352;149.036;2023-04-01T04:50:23;23.10;53.50
39695;DHT22;25367;-35.352;149.036;2023-04-01T04:52:54;23.20;53.50
39695;DHT22;25367;-35.352;149.036;2023-04-01T04:55:24;23.20;53.50
39695;DHT22;25367;-35.352;149.036;2023-04-01T04:58:11;23.20;53.50
39695;DHT22;25367;-35.352;149.036;2023-04-01T05:00:44;23.20;53.50
39695;DHT22;25367;-35.352;149.036;2023-04-01T05:03:21;23.20;53.40
39695;DHT22;25367;-35.352;149.036;2023-04-01T05:05:51;23.20;53.40
39695;DHT22;25367;-35.352;149.036;2023-04-01T05:08:22;23.20;53.30
39695;DHT22;25367;-35.352;149.036;2023-04-01T05:10:52;23.20;53.30
39695;DHT22;25367;-35.352;149.036;2023-04-01T05:13:21;23.20;53.30
39695;DHT22;25367;-35.352;149.036;2023-04-01T05:15:51;23.20;53.20
39695;DHT22;25367;-35.352;149.036;2023-04-01T05:18:20;23.30;53.20
39695;DHT22;25367;-35.352;149.036;2023-04-01T05:20:50;23.30;53.20
39695;DHT22;25367;-35.352;149.036;2023-04-01T05:23:23;23.30;53.10
39695;DHT22;25367;-35.352;149.036;2023-04-01T05:25:52;23.20;52.90
39695;DHT22;25367;-35.352;149.036;2023-04-01T05:28:22;23.20;52.90
39695;DHT22;25367;-35.352;149.036;2023-04-01T05:30:52;23.20;52.70
39695;DHT22;25367;-35.352;149.036;2023-04-01T05:33:27;23.20;52.70
39695;DHT22;25367;-35.352;149.036;2023-04-01T05:35:57;23.20;52.70
39695;DHT22;25367;-35.352;149.036;2023-04-01T05:38:36;23.20;52.50
39695;DHT22;25367;-35.352;149.036;2023-04-01T05:41:07;23.20;52.50
39695;DHT22;25367;-35.352;149.036;2023-04-01T05:43:41;23.20;52.50
39695;DHT22;25367;-35.352;149.036;2023-04-01T05:46:30;23.20;52.50
39695;DHT22;25367;-35.352;149.036;2023-04-01T05:49:07;23.20;52.50
39695;DHT22;25367;-35.352;149.036;2023-04-01T05:51:37;23.20;52.50
39695;DHT22;25367;-35.352;149.036;2023-04-01T05:54:09;23.20;52.50
39695;DHT22;25367;-35.352;149.036;2023-04-01T05:56:40;23.20;52.50
39695;DHT22;25367;-35.352;149.036;2023-04-01T05:59:11;23.20;52.40
39695;DHT22;25367;-35.352;149.036;2023-04-01T06:01:41;23.20;52.30
39695;DHT22;25367;-35.352;149.036;2023-04-01T06:04:13;23.30;52.40
39695;DHT22;25367;-35.352;149.036;2023-04-01T06:06:44;23.20;52.40
39695;DHT22;25367;-35.352;149.036;2023-04-01T06:09:18;23.20;52.30
39695;DHT22;25367;-35.352;149.036;2023-04-01T06:12:08;23.20;52.20
39695;DHT22;25367;-35.352;149.036;2023-04-01T06:14:54;23.20;52.20
39695;DHT22;25367;-35.352;149.036;2023-04-01T06:17:40;23.10;51.90
39695;DHT22;25367;-35.352;149.036;2023-04-01T06:20:16;23.20;52.30
39695;DHT22;25367;-35.352;149.036;2023-04-01T06:22:57;23.20;52.30
39695;DHT22;25367;-35.352;149.036;2023-04-01T06:25:39;23.20;52.30
39695;DHT22;25367;-35.352;149.036;2023-04-01T06:31:23;23.20;52.40
39695;DHT22;25367;-35.352;149.036;2023-04-01T06:34:16;23.20;52.30
39695;DHT22;25367;-35.352;149.036;2023-04-01T06:37:01;23.20;52.30
39695;DHT22;25367;-35.352;149.036;2023-04-01T06:39:43;23.20;52.30
39695;DHT22;25367;-35.352;149.036;2023-04-01T06:42:41;23.20;52.30
39695;DHT22;25367;-35.352;149.036;2023-04-01T06:45:39;23.20;52.30
39695;DHT22;25367;-35.352;149.036;2023-04-01T06:48:40;23.20;52.20
39695;DHT22;25367;-35.352;149.036;2023-04-01T06:51:49;23.20;52.30
39695;DHT22;25367;-35.352;149.036;2023-04-01T06:54:43;23.20;52.20
39695;DHT22;25367;-35.352;149.036;2023-04-01T06:57:47;23.20;52.10
39695;DHT22;25367;-35.352;149.036;2023-04-01T07:00:22;23.10;52.00
39695;DHT22;25367;-35.352;149.036;2023-04-01T07:03:04;23.20;51.80
39695;DHT22;25367;-35.352;149.036;2023-04-01T07:05:35;23.20;51.60
39695;DHT22;25367;-35.352;149.036;2023-04-01T07:08:09;23.20;51.20
39695;DHT22;25367;-35.352;149.036;2023-04-01T07:10:45;23.20;51.10
39695;DHT22;25367;-35.352;149.036;2023-04-01T07:13:41;23.20;51.30
39695;DHT22;25367;-35.352;149.036;2023-04-01T07:16:19;23.10;51.10
39695;DHT22;25367;-35.352;149.036;2023-04-01T07:18:52;23.10;50.70
39695;DHT22;25367;-35.352;149.036;2023-04-01T07:21:30;23.10;50.70
39695;DHT22;25367;-35.352;149.036;2023-04-01T07:24:05;23.10;50.60
39695;DHT22;25367;-35.352;149.036;2023-04-01T07:26:40;23.00;50.50
39695;DHT22;25367;-35.352;149.036;2023-04-01T07:29:19;23.00;50.50
39695;DHT22;25367;-35.352;149.036;2023-04-01T07:32:16;23.00;50.60
39695;DHT22;25367;-35.352;149.036;2023-04-01T07:34:57;23.00;50.90
39695;DHT22;25367;-35.352;149.036;2023-04-01T07:37:30;23.00;50.70
39695;DHT22;25367;-35.352;149.036;2023-04-01T07:40:10;22.90;51.30
39695;DHT22;25367;-35.352;149.036;2023-04-01T07:42:54;22.90;50.90
39695;DHT22;25367;-35.352;149.036;2023-04-01T07:45:32;22.90;50.70
39695;DHT22;25367;-35.352;149.036;2023-04-01T07:48:19;22.90;50.70
39695;DHT22;25367;-35.352;149.036;2023-04-01T07:50:56;22.90;50.70
39695;DHT22;25367;-35.352;149.036;2023-04-01T07:53:35;22.90;50.50
39695;DHT22;25367;-35.352;149.036;2023-04-01T07:56:08;22.90;50.60
39695;DHT22;25367;-35.352;149.036;2023-04-01T07:58:49;22.90;50.50
39695;DHT22;25367;-35.352;149.036;2023-04-01T08:01:48;22.90;50.50
39695;DHT22;25367;-35.352;149.036;2023-04-01T08:04:34;22.90;50.50
39695;DHT22;25367;-35.352;149.036;2023-04-01T08:07:10;22.90;50.60
39695;DHT22;25367;-35.352;149.036;2023-04-01T08:09:51;22.90;50.30
39695;DHT22;25367;-35.352;149.036;2023-04-01T08:12:51;22.90;50.30
39695;DHT22;25367;-35.352;149.036;2023-04-01T08:15:55;22.80;50.20
39695;DHT22;25367;-35.352;149.036;2023-04-01T08:18:46;22.80;50.10
39695;DHT22;25367;-35.352;149.036;2023-04-01T08:21:19;22.80;50.20
39695;DHT22;25367;-35.352;149.036;2023-04-01T08:23:51;22.80;50.00
39695;DHT22;25367;-35.352;149.036;2023-04-01T08:26:28;22.80;49.90
39695;DHT22;25367;-35.352;149.036;2023-04-01T08:29:02;22.80;50.00
39695;DHT22;25367;-35.352;149.036;2023-04-01T08:31:39;22.80;49.90
39695;DHT22;25367;-35.352;149.036;2023-04-01T08:34:17;22.80;50.00
39695;DHT22;25367;-35.352;149.036;2023-04-01T08:36:53;22.70;50.10
39695;DHT22;25367;-35.352;149.036;2023-04-01T08:39:30;22.70;50.10
39695;DHT22;25367;-35.352;149.036;2023-04-01T08:45:25;22.70;50.30
39695;DHT22;25367;-35.352;149.036;2023-04-01T08:48:34;22.70;50.10
39695;DHT22;25367;-35.352;149.036;2023-04-01T08:57:45;22.60;50.20
39695;DHT22;25367;-35.352;149.036;2023-04-01T09:00:40;22.60;50.00
39695;DHT22;25367;-35.352;149.036;2023-04-01T09:03:37;22.60;49.80
39695;DHT22;25367;-35.352;149.036;2023-04-01T09:06:31;22.60;50.00
39695;DHT22;25367;-35.352;149.036;2023-04-01T09:09:32;22.60;50.00
39695;DHT22;25367;-35.352;149.036;2023-04-01T09:12:42;22.50;49.50
39695;DHT22;25367;-35.352;149.036;2023-04-01T09:15:37;22.50;49.50
39695;DHT22;25367;-35.352;149.036;2023-04-01T09:18:51;22.50;49.50
39695;DHT22;25367;-35.352;149.036;2023-04-01T09:24:39;22.40;49.40
39695;DHT22;25367;-35.352;149.036;2023-04-01T09:27:25;22.40;49.20
39695;DHT22;25367;-35.352;149.036;2023-04-01T09:36:11;22.30;48.90
39695;DHT22;25367;-35.352;149.036;2023-04-01T09:38:54;22.30;48.90
39695;DHT22;25367;-35.352;149.036;2023-04-01T09:41:30;22.30;48.80
39695;DHT22;25367;-35.352;149.036;2023-04-01T09:44:14;22.30;48.80
39695;DHT22;25367;-35.352;149.036;2023-04-01T09:47:20;22.20;49.00
39695;DHT22;25367;-35.352;149.036;2023-04-01T09:50:29;22.20;49.20
39695;DHT22;25367;-35.352;149.036;2023-04-01T09:53:10;22.30;49.40
39695;DHT22;25367;-35.352;149.036;2023-04-01T09:56:14;22.30;49.50
39695;DHT22;25367;-35.352;149.036;2023-04-01T10:15:25;22.30;50.00
39695;DHT22;25367;-35.352;149.036;2023-04-01T10:24:31;22.30;50.10
39695;DHT22;25367;-35.352;149.036;2023-04-01T10:31:07;22.30;50.20
39695;DHT22;25367;-35.352;149.036;2023-04-01T10:33:59;22.30;50.30
39695;DHT22;25367;-35.352;149.036;2023-04-01T10:36:41;22.20;50.20
39695;DHT22;25367;-35.352;149.036;2023-04-01T10:46:50;22.30;50.60
39695;DHT22;25367;-35.352;149.036;2023-04-01T10:49:47;22.20;50.50
39695;DHT22;25367;-35.352;149.036;2023-04-01T10:52:42;22.20;50.50
39695;DHT22;25367;-35.352;149.036;2023-04-01T11:06:09;22.20;50.60
39695;DHT22;25367;-35.352;149.036;2023-04-01T11:12:07;22.10;50.60
39695;DHT22;25367;-35.352;149.036;2023-04-01T11:15:25;22.10;50.60
39695;DHT22;25367;-35.352;149.036;2023-04-01T11:18:47;22.10;50.50
39695;DHT22;25367;-35.352;149.036;2023-04-01T11:31:47;22.00;50.70
39695;DHT22;25367;-35.352;149.036;2023-04-01T11:37:24;21.90;50.70
39695;DHT22;25367;-35.352;149.036;2023-04-01T11:40:19;21.90;50.70
39695;DHT22;25367;-35.352;149.036;2023-04-01T11:43:21;21.90;50.70
39695;DHT22;25367;-35.352;149.036;2023-04-01T11:46:20;21.90;50.80
39695;DHT22;25367;-35.352;149.036;2023-04-01T11:49:03;21.90;50.80
39695;DHT22;25367;-35.352;149.036;2023-04-01T11:51:57;21.90;50.70
39695;DHT22;25367;-35.352;149.036;2023-04-01T11:57:34;21.90;50.80
39695;DHT22;25367;-35.352;149.036;2023-04-01T12:00:49;21.90;50.80
39695;DHT22;25367;-35.352;149.036;2023-04-01T12:03:46;21.90;50.70
39695;DHT22;25367;-35.352;149.036;2023-04-01T12:06:23;21.80;50.80
39695;DHT22;25367;-35.352;149.036;2023-04-01T12:09:06;21.80;50.80
39695;DHT22;25367;-35.352;149.036;2023-04-01T12:11:44;21.80;50.80
39695;DHT22;25367;-35.352;149.036;2023-04-01T12:14:21;21.80;50.80
39695;DHT22;25367;-35.352;149.036;2023-04-01T12:17:00;21.80;50.90
39695;DHT22;25367;-35.352;149.036;2023-04-01T12:19:40;21.80;50.90
39695;DHT22;25367;-35.352;149.036;2023-04-01T12:22:32;21.80;50.90
39695;DHT22;25367;-35.352;149.036;2023-04-01T12:25:27;21.80;50.80
39695;DHT22;25367;-35.352;149.036;2023-04-01T12:28:08;21.80;50.90
39695;DHT22;25367;-35.352;149.036;2023-04-01T12:31:01;21.80;51.00
39695;DHT22;25367;-35.352;149.036;2023-04-01T12:33:53;21.80;50.90
39695;DHT22;25367;-35.352;149.036;2023-04-01T12:36:37;21.80;51.00
39695;DHT22;25367;-35.352;149.036;2023-04-01T12:42:16;21.80;50.90
39695;DHT22;25367;-35.352;149.036;2023-04-01T12:45:04;21.70;51.00
39695;DHT22;25367;-35.352;149.036;2023-04-01T12:48:04;21.80;51.00
39695;DHT22;25367;-35.352;149.036;2023-04-01T12:54:02;21.70;51.10
39695;DHT22;25367;-35.352;149.036;2023-04-01T12:56:47;21.70;51.10
39695;DHT22;25367;-35.352;149.036;2023-04-01T12:59:33;21.70;51.10
39695;DHT22;25367;-35.352;149.036;2023-04-01T13:02:13;21.70;51.10
39695;DHT22;25367;-35.352;149.036;2023-04-01T13:05:18;21.70;51.20
39695;DHT22;25367;-35.352;149.036;2023-04-01T13:10:53;21.60;51.10
39695;DHT22;25367;-35.352;149.036;2023-04-01T13:16:31;21.60;51.10
39695;DHT22;25367;-35.352;149.036;2023-04-01T13:19:07;21.60;51.30
39695;DHT22;25367;-35.352;149.036;2023-04-01T13:21:47;21.60;51.20
39695;DHT22;25367;-35.352;149.036;2023-04-01T13:24:29;21.60;51.20
39695;DHT22;25367;-35.352;149.036;2023-04-01T13:27:05;21.60;51.30
39695;DHT22;25367;-35.352;149.036;2023-04-01T13:29:38;21.60;51.30
39695;DHT22;25367;-35.352;149.036;2023-04-01T13:32:22;21.60;51.30
39695;DHT22;25367;-35.352;149.036;2023-04-01T13:35:04;21.60;51.30
39695;DHT22;25367;-35.352;149.036;2023-04-01T13:38:04;21.50;51.30
39695;DHT22;25367;-35.352;149.036;2023-04-01T13:40:47;21.50;51.30
39695;DHT22;25367;-35.352;149.036;2023-04-01T13:43:22;21.50;51.40
39695;DHT22;25367;-35.352;149.036;2023-04-01T13:46:09;21.50;51.40
39695;DHT22;25367;-35.352;149.036;2023-04-01T13:49:16;21.50;51.30
39695;DHT22;25367;-35.352;149.036;2023-04-01T13:55:21;21.50;51.40
39695;DHT22;25367;-35.352;149.036;2023-04-01T14:01:12;21.40;51.40
39695;DHT22;25367;-35.352;149.036;2023-04-01T14:06:57;21.40;51.40
39695;DHT22;25367;-35.352;149.036;2023-04-01T14:09:45;21.40;51.50
39695;DHT22;25367;-35.352;149.036;2023-04-01T14:12:29;21.30;51.40
39695;DHT22;25367;-35.352;149.036;2023-04-01T14:15:15;21.30;51.70
39695;DHT22;25367;-35.352;149.036;2023-04-01T14:17:54;21.30;51.50
39695;DHT22;25367;-35.352;149.036;2023-04-01T14:20:38;21.30;51.60
39695;DHT22;25367;-35.352;149.036;2023-04-01T14:23:29;21.30;51.50
39695;DHT22;25367;-35.352;149.036;2023-04-01T14:26:38;21.30;51.50
39695;DHT22;25367;-35.352;149.036;2023-04-01T14:29:20;21.30;51.50
39695;DHT22;25367;-35.352;149.036;2023-04-01T14:32:07;21.30;51.70
39695;DHT22;25367;-35.352;149.036;2023-04-01T14:34:58;21.30;51.60
39695;DHT22;25367;-35.352;149.036;2023-04-01T14:40:39;21.30;51.60
39695;DHT22;25367;-35.352;149.036;2023-04-01T14:43:40;21.20;52.20
39695;DHT22;25367;-35.352;149.036;2023-04-01T14:46:50;21.30;51.60
39695;DHT22;25367;-35.352;149.036;2023-04-01T14:49:29;21.20;51.60
39695;DHT22;25367;-35.352;149.036;2023-04-01T14:52:09;21.20;51.80
39695;DHT22;25367;-35.352;149.036;2023-04-01T14:54:40;21.20;51.70
39695;DHT22;25367;-35.352;149.036;2023-04-01T14:57:15;21.20;51.80
39695;DHT22;25367;-35.352;149.036;2023-04-01T14:59:51;21.20;51.70
39695;DHT22;25367;-35.352;149.036;2023-04-01T15:02:41;21.20;51.70
39695;DHT22;25367;-35.352;149.036;2023-04-01T15:05:23;21.20;51.60
39695;DHT22;25367;-35.352;149.036;2023-04-01T15:08:10;21.20;51.80
39695;DHT22;25367;-35.352;149.036;2023-04-01T15:10:59;21.20;51.80
39695;DHT22;25367;-35.352;149.036;2023-04-01T15:13:51;21.10;51.70
39695;DHT22;25367;-35.352;149.036;2023-04-01T15:16:26;21.10;51.80
39695;DHT22;25367;-35.352;149.036;2023-04-01T15:19:05;21.10;51.80
39695;DHT22;25367;-35.352;149.036;2023-04-01T15:21:57;21.10;51.80
39695;DHT22;25367;-35.352;149.036;2023-04-01T15:24:42;21.10;51.80
39695;DHT22;25367;-35.352;149.036;2023-04-01T15:27:29;21.10;51.80
39695;DHT22;25367;-35.352;149.036;2023-04-01T15:30:31;21.10;51.90
39695;DHT22;25367;-35.352;149.036;2023-04-01T15:33:18;21.10;51.70
39695;DHT22;25367;-35.352;149.036;2023-04-01T15:36:00;21.00;51.80
39695;DHT22;25367;-35.352;149.036;2023-04-01T15:38:37;21.00;51.90
39695;DHT22;25367;-35.352;149.036;2023-04-01T15:41:14;21.00;51.90
39695;DHT22;25367;-35.352;149.036;2023-04-01T15:43:45;21.00;51.90
39695;DHT22;25367;-35.352;149.036;2023-04-01T15:46:48;21.00;51.90
39695;DHT22;25367;-35.352;149.036;2023-04-01T15:49:31;21.00;51.70
39695;DHT22;25367;-35.352;149.036;2023-04-01T15:52:07;21.00;51.90
39695;DHT22;25367;-35.352;149.036;2023-04-01T15:57:44;21.00;51.90
39695;DHT22;25367;-35.352;149.036;2023-04-01T16:00:27;20.90;51.90
39695;DHT22;25367;-35.352;149.036;2023-04-01T16:03:28;20.90;51.90
39695;DHT22;25367;-35.352;149.036;2023-04-01T16:06:29;20.90;51.90
39695;DHT22;25367;-35.352;149.036;2023-04-01T16:09:26;20.90;51.90
39695;DHT22;25367;-35.352;149.036;2023-04-01T16:12:07;20.90;51.90
39695;DHT22;25367;-35.352;149.036;2023-04-01T16:14:50;20.90;52.10
39695;DHT22;25367;-35.352;149.036;2023-04-01T16:17:44;20.90;52.00
39695;DHT22;25367;-35.352;149.036;2023-04-01T16:20:25;20.90;51.90
39695;DHT22;25367;-35.352;149.036;2023-04-01T16:23:10;20.90;52.00
39695;DHT22;25367;-35.352;149.036;2023-04-01T16:25:44;20.80;52.10
39695;DHT22;25367;-35.352;149.036;2023-04-01T16:28:19;20.80;52.10
39695;DHT22;25367;-35.352;149.036;2023-04-01T16:30:57;20.80;52.00
39695;DHT22;25367;-35.352;149.036;2023-04-01T16:33:35;20.80;52.00
39695;DHT22;25367;-35.352;149.036;2023-04-01T16:36:22;20.80;52.10
39695;DHT22;25367;-35.352;149.036;2023-04-01T16:39:06;20.80;52.00
39695;DHT22;25367;-35.352;149.036;2023-04-01T16:41:46;20.80;52.10
39695;DHT22;25367;-35.352;149.036;2023-04-01T16:44:20;20.70;52.10
39695;DHT22;25367;-35.352;149.036;2023-04-01T16:46:52;20.70;52.10
39695;DHT22;25367;-35.352;149.036;2023-04-01T16:49:36;20.70;52.10
39695;DHT22;25367;-35.352;149.036;2023-04-01T16:52:29;20.70;52.10
39695;DHT22;25367;-35.352;149.036;2023-04-01T16:55:02;20.70;52.10
39695;DHT22;25367;-35.352;149.036;2023-04-01T16:57:43;20.70;52.20
39695;DHT22;25367;-35.352;149.036;2023-04-01T17:00:21;20.70;52.20
39695;DHT22;25367;-35.352;149.036;2023-04-01T17:03:03;20.70;52.20
39695;DHT22;25367;-35.352;149.036;2023-04-01T17:06:02;20.60;52.20
39695;DHT22;25367;-35.352;149.036;2023-04-01T17:09:04;20.70;52.10
39695;DHT22;25367;-35.352;149.036;2023-04-01T17:11:42;20.60;52.10
39695;DHT22;25367;-35.352;149.036;2023-04-01T17:14:20;20.60;52.20
39695;DHT22;25367;-35.352;149.036;2023-04-01T17:17:14;20.60;52.20
39695;DHT22;25367;-35.352;149.036;2023-04-01T17:20:04;20.60;52.20
39695;DHT22;25367;-35.352;149.036;2023-04-01T17:22:44;20.60;52.20
39695;DHT22;25367;-35.352;149.036;2023-04-01T17:25:43;20.50;52.20
39695;DHT22;25367;-35.352;149.036;2023-04-01T17:28:27;20.50;52.10
39695;DHT22;25367;-35.352;149.036;2023-04-01T17:31:05;20.50;52.20
39695;DHT22;25367;-35.352;149.036;2023-04-01T17:37:00;20.50;52.10
39695;DHT22;25367;-35.352;149.036;2023-04-01T17:39:45;20.50;52.20
39695;DHT22;25367;-35.352;149.036;2023-04-01T17:42:21;20.50;52.30
39695;DHT22;25367;-35.352;149.036;2023-04-01T17:44:59;20.50;52.30
39695;DHT22;25367;-35.352;149.036;2023-04-01T17:47:45;20.50;52.30
39695;DHT22;25367;-35.352;149.036;2023-04-01T17:50:22;20.50;52.30
39695;DHT22;25367;-35.352;149.036;2023-04-01T17:53:07;20.40;52.30
39695;DHT22;25367;-35.352;149.036;2023-04-01T17:56:06;20.50;52.30
39695;DHT22;25367;-35.352;149.036;2023-04-01T17:58:46;20.40;52.20
39695;DHT22;25367;-35.352;149.036;2023-04-01T18:01:22;20.40;52.30
39695;DHT22;25367;-35.352;149.036;2023-04-01T18:04:07;20.40;52.40